createdAt,value
2022-07-26T00:00:00.926Z,2.97
2022-07-26T00:02:27.675Z,3.22
2022-07-26T00:04:54.307Z,2.88
2022-07-26T00:07:20.963Z,3.10
2022-07-26T00:09:48.553Z,2.90
2022-07-26T00:12:15.455Z,3.00
2022-07-26T00:14:43.446Z,3.45
2022-07-26T00:17:10.321Z,3.08
2022-07-26T00:19:36.992Z,2.85
2022-07-26T00:22:22.644Z,2.72
2022-07-26T00:24:49.406Z,3.00
2022-07-26T00:27:16.033Z,3.13
2022-07-26T00:29:42.657Z,3.00
2022-07-26T00:32:09.461Z,3.22
2022-07-26T00:34:36.069Z,3.13
2022-07-26T00:37:02.721Z,3.30
2022-07-26T00:39:29.367Z,2.85
2022-07-26T00:41:56.020Z,3.28
2022-07-26T00:44:22.696Z,3.30
2022-07-26T00:46:49.363Z,3.05
2022-07-26T00:49:16.165Z,3.47
2022-07-26T00:51:46.409Z,3.45
2022-07-26T00:54:13.324Z,3.78
2022-07-26T00:56:40.193Z,3.28
2022-07-26T00:59:07.295Z,3.13
2022-07-26T01:01:34.247Z,2.95
2022-07-26T01:04:00.986Z,4.15
2022-07-26T01:06:27.818Z,3.30
2022-07-26T01:08:55.059Z,3.83
2022-07-26T01:11:21.800Z,3.22
2022-07-26T01:13:49.661Z,3.22
2022-07-26T01:16:17.351Z,3.35
2022-07-26T01:18:44.397Z,3.25
2022-07-26T01:21:13.777Z,3.45
2022-07-26T01:23:41.652Z,3.30
2022-07-26T01:26:08.758Z,3.15
2022-07-26T01:28:37.874Z,3.40
2022-07-26T01:31:05.826Z,3.15
2022-07-26T01:33:34.289Z,3.05
2022-07-26T01:36:01.503Z,3.20
2022-07-26T01:38:28.748Z,3.20
2022-07-26T01:40:55.464Z,3.60
2022-07-26T01:43:22.119Z,3.42
2022-07-26T01:45:48.929Z,3.83
2022-07-26T01:48:15.663Z,3.33
2022-07-26T01:50:42.474Z,3.45
2022-07-26T01:53:09.470Z,3.33
2022-07-26T01:55:36.663Z,3.67
2022-07-26T01:58:05.284Z,3.78
2022-07-26T02:00:32.323Z,3.78
2022-07-26T02:02:59.170Z,4.00
2022-07-26T02:05:25.986Z,3.65
2022-07-26T02:07:52.929Z,3.63
2022-07-26T02:10:19.738Z,3.20
2022-07-26T02:12:46.358Z,3.35
2022-07-26T02:15:14.285Z,3.83
2022-07-26T02:17:41.156Z,3.83
2022-07-26T02:20:08.773Z,3.83
2022-07-26T02:22:36.040Z,3.42
2022-07-26T02:25:05.208Z,3.58
2022-07-26T02:27:32.944Z,3.75
2022-07-26T02:29:59.562Z,3.72
2022-07-26T02:32:26.165Z,3.47
2022-07-26T02:34:52.819Z,3.60
2022-07-26T02:37:19.440Z,3.38
2022-07-26T02:39:46.029Z,3.92
2022-07-26T02:42:12.707Z,3.70
2022-07-26T02:44:39.344Z,3.75
2022-07-26T02:47:06.036Z,3.58
2022-07-26T02:49:32.638Z,3.80
2022-07-26T02:51:59.303Z,3.70
2022-07-26T02:54:25.929Z,3.38
2022-07-26T02:56:52.565Z,3.47
2022-07-26T02:59:19.267Z,3.90
2022-07-26T03:01:46.008Z,3.95
2022-07-26T03:04:12.712Z,3.80
2022-07-26T03:06:39.434Z,3.65
2022-07-26T03:09:06.119Z,4.25
2022-07-26T03:11:32.772Z,3.97
2022-07-26T03:13:59.401Z,3.50
2022-07-26T03:16:29.639Z,3.70
2022-07-26T03:18:57.318Z,3.42
2022-07-26T03:21:24.629Z,3.53
2022-07-26T03:23:51.230Z,3.80
2022-07-26T03:26:17.833Z,3.83
2022-07-26T03:28:44.734Z,3.33
2022-07-26T03:31:13.101Z,3.92
2022-07-26T03:33:40.558Z,3.55
2022-07-26T03:36:11.490Z,3.70
2022-07-26T03:38:39.540Z,4.18
2022-07-26T03:41:06.366Z,4.00
2022-07-26T03:43:36.267Z,3.30
2022-07-26T03:46:03.299Z,4.10
2022-07-26T03:48:31.168Z,4.00
2022-07-26T03:50:57.880Z,3.13
2022-07-26T03:53:24.649Z,3.53
2022-07-26T03:56:10.324Z,3.50
2022-07-26T03:58:37.370Z,3.90
2022-07-26T04:01:04.268Z,3.22
2022-07-26T04:03:30.932Z,4.13
2022-07-26T04:05:57.841Z,3.92
2022-07-26T04:08:24.857Z,3.83
2022-07-26T04:11:06.678Z,4.38
2022-07-26T04:13:33.345Z,3.97
2022-07-26T04:16:00.428Z,4.53
2022-07-26T04:18:27.226Z,3.72
2022-07-26T04:20:53.907Z,4.68
2022-07-26T04:23:20.512Z,4.40
2022-07-26T04:25:47.135Z,4.25
2022-07-26T04:28:13.941Z,4.57
2022-07-26T04:30:41.052Z,4.05
2022-07-26T04:33:08.440Z,4.32
2022-07-26T04:35:35.064Z,4.75
2022-07-26T04:38:02.603Z,4.18
2022-07-26T04:40:33.478Z,5.07
2022-07-26T04:43:02.896Z,4.30
2022-07-26T04:45:30.491Z,4.53
2022-07-26T04:47:57.820Z,4.65
2022-07-26T04:50:25.032Z,4.60
2022-07-26T04:52:52.713Z,5.30
2022-07-26T04:55:20.383Z,4.70
2022-07-26T04:57:47.957Z,4.50
2022-07-26T05:00:22.023Z,5.93
2022-07-26T05:02:50.709Z,5.78
2022-07-26T05:05:17.429Z,5.60
2022-07-26T05:07:50.506Z,5.75
2022-07-26T05:10:18.303Z,5.43
2022-07-26T05:12:49.023Z,5.15
2022-07-26T05:15:16.263Z,4.93
2022-07-26T05:17:43.850Z,6.40
2022-07-26T05:20:15.655Z,5.85
2022-07-26T05:22:43.111Z,5.63
2022-07-26T05:25:10.337Z,5.60
2022-07-26T05:27:37.210Z,5.53
2022-07-26T05:30:04.054Z,5.72
2022-07-26T05:32:30.690Z,5.60
2022-07-26T05:34:57.401Z,4.80
2022-07-26T05:37:24.099Z,5.15
2022-07-26T05:39:50.750Z,7.13
2022-07-26T05:42:17.505Z,6.40
2022-07-26T05:44:44.156Z,5.18
2022-07-26T05:47:11.176Z,6.47
2022-07-26T05:49:40.435Z,5.97
2022-07-26T05:52:08.210Z,5.47
2022-07-26T05:54:35.009Z,5.10
2022-07-26T05:57:01.886Z,5.63
2022-07-26T05:59:29.036Z,9.32
2022-07-26T06:01:58.926Z,11.43
2022-07-26T06:04:26.832Z,5.88
2022-07-26T06:06:54.937Z,5.60
2022-07-26T06:09:24.294Z,5.10
2022-07-26T06:11:51.315Z,5.18
2022-07-26T06:14:18.402Z,5.32
2022-07-26T06:16:46.557Z,5.18
2022-07-26T06:19:13.774Z,5.83
2022-07-26T06:21:40.429Z,5.40
2022-07-26T06:24:08.437Z,5.22
2022-07-26T06:26:35.341Z,4.97
2022-07-26T06:29:01.938Z,4.78
2022-07-26T06:31:28.632Z,4.97
2022-07-26T06:33:55.395Z,5.60
2022-07-26T06:36:25.083Z,5.88
2022-07-26T06:38:55.029Z,6.28
2022-07-26T06:41:21.645Z,5.45
2022-07-26T06:43:48.244Z,6.93
2022-07-26T06:46:15.033Z,6.85
2022-07-26T06:48:42.113Z,5.40
2022-07-26T06:51:14.227Z,5.30
2022-07-26T06:53:42.761Z,5.50
2022-07-26T06:56:09.370Z,5.38
2022-07-26T06:58:35.996Z,5.07
2022-07-26T07:01:02.695Z,5.82
2022-07-26T07:03:29.407Z,4.82
2022-07-26T07:05:56.040Z,5.10
2022-07-26T07:08:24.835Z,4.53
2022-07-26T07:10:53.082Z,4.72
2022-07-26T07:13:21.078Z,5.55
2022-07-26T07:15:47.691Z,4.68
2022-07-26T07:18:14.414Z,5.00
2022-07-26T07:20:41.267Z,4.47
2022-07-26T07:23:08.321Z,4.10
2022-07-26T07:25:34.908Z,4.55
2022-07-26T07:28:01.543Z,5.20
2022-07-26T07:30:28.546Z,4.68
2022-07-26T07:32:56.595Z,4.90
2022-07-26T07:35:23.660Z,4.70
2022-07-26T07:37:53.184Z,4.57
2022-07-26T07:40:21.290Z,4.72
2022-07-26T07:42:48.018Z,4.47
2022-07-26T07:45:14.990Z,3.85
2022-07-26T07:47:41.857Z,4.25
2022-07-26T07:50:09.037Z,4.72
2022-07-26T07:52:35.901Z,4.15
2022-07-26T07:55:37.812Z,4.35
2022-07-26T07:57:49.439Z,4.18
2022-07-26T08:00:19.157Z,4.22
2022-07-26T08:02:46.960Z,4.55
2022-07-26T08:05:15.584Z,4.97
2022-07-26T08:07:42.850Z,4.50
2022-07-26T08:10:09.974Z,4.60
2022-07-26T08:12:36.734Z,3.97
2022-07-26T08:15:07.557Z,4.63
2022-07-26T08:17:35.745Z,5.00
2022-07-26T08:20:08.018Z,5.10
2022-07-26T08:22:37.509Z,4.57
2022-07-26T08:25:04.504Z,4.50
2022-07-26T08:27:31.133Z,4.63
2022-07-26T08:29:57.748Z,4.30
2022-07-26T08:32:24.337Z,4.60
2022-07-26T08:34:51.120Z,4.70
2022-07-26T08:37:18.278Z,3.97
2022-07-26T08:39:47.474Z,4.80
2022-07-26T08:42:22.475Z,4.55
2022-07-26T08:44:51.158Z,5.20
2022-07-26T08:47:35.210Z,5.18
2022-07-26T08:50:07.643Z,5.40
2022-07-26T08:52:34.751Z,5.10
2022-07-26T08:55:01.343Z,5.40
2022-07-26T08:57:27.994Z,5.70
2022-07-26T09:00:14.617Z,5.57
2022-07-26T09:02:44.203Z,4.55
2022-07-26T09:05:11.676Z,5.82
2022-07-26T09:10:10.285Z,6.53
2022-07-26T09:12:38.102Z,5.93
2022-07-26T09:15:07.367Z,7.85
2022-07-26T09:17:45.910Z,6.47
2022-07-26T09:20:17.361Z,6.43
2022-07-26T09:23:14.008Z,6.82
2022-07-26T09:25:43.385Z,6.97
2022-07-26T09:28:26.054Z,5.93
2022-07-26T09:30:54.902Z,6.70
2022-07-26T09:33:21.605Z,6.75
2022-07-26T09:36:06.833Z,7.53
2022-07-26T09:38:48.921Z,7.47
2022-07-26T09:41:29.262Z,7.15
2022-07-26T09:44:00.553Z,7.20
2022-07-26T09:46:31.795Z,6.68
2022-07-26T09:49:16.209Z,7.05
2022-07-26T09:51:48.025Z,7.05
2022-07-26T09:54:32.826Z,6.90
2022-07-26T09:56:59.998Z,6.85
2022-07-26T09:59:27.778Z,6.60
2022-07-26T10:01:56.289Z,6.68
2022-07-26T10:04:23.801Z,6.60
2022-07-26T10:06:50.900Z,6.90
2022-07-26T10:09:23.307Z,7.00
2022-07-26T10:12:04.926Z,8.23
2022-07-26T10:14:44.791Z,6.68
2022-07-26T10:17:31.610Z,6.53
2022-07-26T10:20:16.893Z,7.70
2022-07-26T10:22:46.266Z,7.43
2022-07-26T10:25:18.945Z,8.18
2022-07-26T10:27:48.038Z,6.35
2022-07-26T10:30:18.071Z,7.35
2022-07-26T10:32:50.865Z,6.68
2022-07-26T10:35:45.073Z,8.60
2022-07-26T10:38:21.690Z,7.63
2022-07-26T10:41:07.654Z,7.32
2022-07-26T10:43:42.569Z,7.38
2022-07-26T10:46:18.967Z,7.82
2022-07-26T10:49:04.084Z,8.88
2022-07-26T10:51:36.366Z,7.97
2022-07-26T10:54:10.568Z,8.68
2022-07-26T10:56:38.284Z,8.93
2022-07-26T10:59:05.901Z,9.13
2022-07-26T11:01:43.331Z,9.00
2022-07-26T11:04:20.628Z,9.13
2022-07-26T11:06:47.658Z,9.65
2022-07-26T11:09:14.896Z,8.38
2022-07-26T11:11:46.379Z,9.25
2022-07-26T11:14:17.091Z,9.65
2022-07-26T11:16:46.546Z,8.88
2022-07-26T11:19:14.656Z,8.63
2022-07-26T11:21:41.845Z,9.55
2022-07-26T11:24:09.305Z,9.77
2022-07-26T11:26:44.640Z,8.93
2022-07-26T11:29:16.674Z,10.65
2022-07-26T11:31:50.834Z,10.80
2022-07-26T11:34:30.803Z,11.40
2022-07-26T11:36:58.894Z,10.70
2022-07-26T11:39:28.751Z,11.38
2022-07-26T11:41:59.846Z,12.52
2022-07-26T11:44:27.884Z,12.35
2022-07-26T11:46:54.730Z,13.25
2022-07-26T11:49:52.370Z,13.73
2022-07-26T11:52:14.068Z,13.60
2022-07-26T11:54:49.689Z,14.00
2022-07-26T11:57:17.358Z,14.13
2022-07-26T11:59:45.605Z,14.18
2022-07-26T12:02:13.621Z,12.98
2022-07-26T12:04:42.789Z,14.27
2022-07-26T12:07:12.677Z,14.30
2022-07-26T12:09:41.782Z,14.73
2022-07-26T12:12:11.092Z,14.07
2022-07-26T12:14:39.688Z,14.55
2022-07-26T12:17:12.477Z,14.68
2022-07-26T12:19:39.648Z,13.75
2022-07-26T12:22:12.367Z,12.50
2022-07-26T12:24:58.900Z,12.52
2022-07-26T12:27:30.648Z,13.50
2022-07-26T12:30:16.041Z,13.75
2022-07-26T12:32:44.584Z,13.77
2022-07-26T12:35:12.775Z,12.60
2022-07-26T12:37:45.504Z,12.57
2022-07-26T12:40:16.515Z,12.48
2022-07-26T12:43:00.513Z,12.85
2022-07-26T14:02:42.127Z,13.45
2022-07-26T14:05:09.333Z,11.88
2022-07-26T14:07:35.982Z,12.70
2022-07-26T14:10:02.648Z,10.73
2022-07-26T14:12:29.369Z,10.43
2022-07-26T14:14:56.032Z,11.63
2022-07-26T14:17:22.628Z,10.45
2022-07-26T14:19:49.250Z,10.50
2022-07-26T14:22:15.951Z,11.30
2022-07-26T14:24:42.622Z,11.05
2022-07-26T14:27:09.215Z,11.07
2022-07-26T14:29:36.168Z,11.60
2022-07-26T14:32:03.215Z,10.73
2022-07-26T14:34:29.984Z,10.60
2022-07-26T14:36:56.622Z,10.15
2022-07-26T14:39:23.311Z,11.82
2022-07-26T14:41:50.156Z,12.43
2022-07-26T14:44:16.765Z,11.32
2022-07-26T14:46:43.921Z,11.38
2022-07-26T14:49:10.775Z,11.70
2022-07-26T14:51:37.651Z,12.18
2022-07-26T14:54:05.180Z,12.07
2022-07-26T14:56:31.814Z,12.82
2022-07-26T14:58:58.449Z,11.93
2022-07-26T15:01:25.267Z,11.73
2022-07-26T15:03:52.007Z,13.05
2022-07-26T15:06:18.638Z,12.23
2022-07-26T15:08:45.341Z,12.50
2022-07-26T15:11:12.151Z,12.65
2022-07-26T15:13:38.807Z,13.25
2022-07-26T15:16:05.749Z,14.98
2022-07-26T15:18:32.678Z,13.50
2022-07-26T15:20:59.574Z,14.95
2022-07-26T15:23:26.456Z,14.32
2022-07-26T15:25:53.055Z,15.00
2022-07-26T15:28:19.902Z,15.85
2022-07-26T15:30:46.572Z,14.90
2022-07-26T15:33:14.638Z,14.05
2022-07-26T15:35:41.646Z,13.83
2022-07-26T15:38:08.240Z,14.13
2022-07-26T15:40:35.229Z,14.32
2022-07-26T15:43:02.029Z,14.20
2022-07-26T15:45:28.682Z,14.82
2022-07-26T15:48:09.377Z,15.50
2022-07-26T15:50:42.478Z,16.25
2022-07-26T15:53:09.147Z,15.48
2022-07-26T15:55:36.137Z,15.30
2022-07-26T15:58:02.927Z,13.45
2022-07-26T16:00:29.592Z,13.80
2022-07-26T16:03:14.567Z,12.82
2022-07-26T16:05:41.222Z,13.98
2022-07-26T16:08:07.825Z,13.13
2022-07-26T16:10:34.447Z,13.35
2022-07-26T16:13:01.583Z,13.43
2022-07-26T16:15:28.187Z,11.52
2022-07-26T16:17:54.811Z,12.10
2022-07-26T16:20:21.514Z,12.30
2022-07-26T16:22:48.294Z,12.55
2022-07-26T16:25:16.165Z,12.55
2022-07-26T16:27:43.792Z,12.73
2022-07-26T16:30:12.375Z,11.85
2022-07-26T16:32:39.096Z,10.43
2022-07-26T16:35:06.159Z,9.73
2022-07-26T16:37:32.735Z,8.05
2022-07-26T16:39:59.431Z,7.97
2022-07-26T16:42:26.176Z,5.07
2022-07-26T16:44:52.954Z,2.28
2022-07-26T16:47:19.598Z,2.10
2022-07-26T16:49:46.316Z,1.77
2022-07-26T16:52:12.935Z,1.50
2022-07-26T16:54:39.555Z,0.90
2022-07-26T16:57:06.280Z,6.40
2022-07-26T16:59:32.988Z,8.65
2022-07-26T17:02:02.788Z,3.50
2022-07-26T17:04:29.868Z,1.60
2022-07-26T17:07:22.146Z,1.10
2022-07-26T17:09:43.179Z,1.23
2022-07-26T17:12:09.988Z,1.40
2022-07-26T17:14:36.626Z,1.33
2022-07-26T17:17:03.279Z,1.10
2022-07-26T17:19:29.902Z,1.58
2022-07-26T17:21:56.579Z,2.55
2022-07-26T17:24:23.407Z,3.20
2022-07-26T17:26:50.071Z,7.47
2022-07-26T17:29:17.511Z,4.47
2022-07-26T17:31:44.129Z,6.25
2022-07-26T17:34:10.883Z,12.30
2022-07-26T17:36:37.567Z,11.10
2022-07-26T17:39:04.437Z,6.13
2022-07-26T17:41:32.504Z,3.23
2022-07-26T17:43:59.908Z,2.80
2022-07-26T17:46:26.729Z,2.47
2022-07-26T17:48:53.405Z,2.85
2022-07-26T17:51:20.132Z,2.53
2022-07-26T17:53:52.702Z,3.08
2022-07-26T17:56:19.705Z,2.53
2022-07-26T17:58:46.288Z,2.38
2022-07-26T18:01:12.955Z,2.38
2022-07-26T18:03:39.607Z,2.17
2022-07-26T18:06:06.757Z,2.35
2022-07-26T18:08:33.655Z,2.58
2022-07-26T18:11:02.804Z,2.53
2022-07-26T18:13:29.505Z,3.08
2022-07-26T18:15:56.561Z,4.90
2022-07-26T18:18:24.294Z,3.47
2022-07-26T18:20:51.037Z,3.15
2022-07-26T18:23:17.635Z,4.70
2022-07-26T18:25:44.457Z,3.33
2022-07-26T18:28:11.488Z,3.90
2022-07-26T18:30:38.369Z,5.07
2022-07-26T18:33:05.555Z,2.97
2022-07-26T18:35:32.543Z,3.95
2022-07-26T18:37:59.233Z,3.55
2022-07-26T18:40:26.184Z,2.78
2022-07-26T18:42:52.899Z,3.20
2022-07-26T18:45:19.664Z,2.80
2022-07-26T18:47:46.715Z,3.05
2022-07-26T18:50:15.356Z,3.25
2022-07-26T18:52:44.151Z,2.92
2022-07-26T18:55:12.658Z,3.20
2022-07-26T18:57:40.738Z,3.40
2022-07-26T19:00:17.015Z,3.38
2022-07-26T19:02:45.022Z,2.60
2022-07-26T19:05:11.864Z,3.03
2022-07-26T19:07:38.775Z,3.38
2022-07-26T19:10:07.716Z,3.10
2022-07-26T19:15:01.894Z,3.95
2022-07-26T19:17:30.031Z,3.10
2022-07-26T19:19:57.334Z,3.83
2022-07-26T19:22:25.727Z,3.13
2022-07-26T19:24:52.671Z,2.50
2022-07-26T19:27:19.382Z,4.10
2022-07-26T19:29:46.084Z,4.57
2022-07-26T19:32:12.956Z,11.25
2022-07-26T19:34:39.620Z,5.30
2022-07-26T19:37:06.427Z,4.43
2022-07-26T19:39:33.069Z,7.82
2022-07-26T19:41:59.817Z,4.82
2022-07-26T19:44:26.513Z,4.55
2022-07-26T19:46:57.309Z,3.97
2022-07-26T19:49:24.769Z,13.00
2022-07-26T19:51:51.420Z,8.75
2022-07-26T19:54:18.065Z,4.78
2022-07-26T19:56:44.745Z,4.55
2022-07-26T19:59:11.715Z,4.35
2022-07-26T20:01:38.682Z,4.15
2022-07-26T20:04:05.615Z,4.25
2022-07-26T20:06:32.237Z,3.90
2022-07-26T20:08:58.934Z,4.15
2022-07-26T20:11:25.743Z,3.17
2022-07-26T20:13:52.393Z,2.95
2022-07-26T20:16:19.177Z,2.95
2022-07-26T20:18:45.827Z,3.05
2022-07-26T20:21:12.470Z,3.22
2022-07-26T20:23:39.073Z,3.50
2022-07-26T20:26:06.474Z,2.85
2022-07-26T20:28:33.256Z,3.10
2022-07-26T20:31:00.068Z,3.25
2022-07-26T20:33:26.802Z,3.50
2022-07-26T20:35:55.362Z,4.18
2022-07-26T20:38:23.048Z,3.20
2022-07-26T20:40:49.776Z,2.90
2022-07-26T20:43:17.275Z,3.13
2022-07-26T20:45:44.579Z,3.22
2022-07-26T20:48:11.303Z,3.92
2022-07-26T20:50:38.393Z,2.90
2022-07-26T20:53:05.111Z,3.70
2022-07-26T20:55:31.786Z,4.00
2022-07-26T20:57:58.418Z,2.90
2022-07-26T21:00:26.525Z,2.97
2022-07-26T21:02:58.065Z,3.22
2022-07-26T21:05:27.775Z,3.05
2022-07-26T21:07:59.484Z,4.00
2022-07-26T21:10:27.864Z,3.38
2022-07-26T21:12:57.536Z,2.75
2022-07-26T21:15:24.288Z,3.13
2022-07-26T21:17:52.567Z,3.08
2022-07-26T21:20:19.325Z,3.33
2022-07-26T21:22:45.953Z,3.05
2022-07-26T21:25:12.569Z,3.72
2022-07-26T21:27:39.503Z,2.92
2022-07-26T21:30:07.568Z,3.35
2022-07-26T21:32:34.263Z,3.47
2022-07-26T21:35:01.142Z,2.88
2022-07-26T21:37:27.975Z,3.47
2022-07-26T21:39:54.610Z,3.05
2022-07-26T21:42:21.208Z,2.60
2022-07-26T21:44:53.515Z,3.00
2022-07-26T21:47:20.124Z,2.78
2022-07-26T21:49:46.715Z,3.40
2022-07-26T21:52:13.367Z,3.25
2022-07-26T21:54:40.049Z,3.42
2022-07-26T21:57:07.450Z,3.30
2022-07-26T21:59:34.162Z,3.13
2022-07-26T22:02:00.981Z,2.97
2022-07-26T22:04:27.721Z,3.35
2022-07-26T22:06:54.330Z,3.47
2022-07-26T22:09:20.949Z,3.42
2022-07-26T22:11:47.622Z,3.50
2022-07-26T22:14:14.243Z,2.55
2022-07-26T22:16:44.385Z,2.80
2022-07-26T22:19:11.419Z,3.10
2022-07-26T22:21:38.537Z,3.25
2022-07-26T22:24:05.696Z,3.78
2022-07-26T22:26:32.891Z,3.92
2022-07-26T22:28:59.632Z,3.20
2022-07-26T22:31:26.553Z,3.28
2022-07-26T22:33:53.355Z,3.38
2022-07-26T22:36:20.181Z,3.97
2022-07-26T22:38:47.260Z,3.85
2022-07-26T22:41:13.919Z,4.03
2022-07-26T22:43:40.639Z,4.82
2022-07-26T22:46:07.331Z,4.78
2022-07-26T22:48:38.082Z,4.25
2022-07-26T22:51:05.358Z,3.88
2022-07-26T22:53:32.063Z,3.90
2022-07-26T22:55:58.672Z,3.85
2022-07-26T22:58:25.283Z,4.10
2022-07-26T23:00:52.045Z,4.07
2022-07-26T23:03:21.570Z,4.47
2022-07-26T23:05:50.009Z,7.38
2022-07-26T23:11:04.867Z,4.03
2022-07-26T23:13:31.559Z,3.78
2022-07-26T23:16:00.941Z,4.70
2022-07-26T23:18:29.850Z,5.07
2022-07-26T23:20:56.647Z,4.50
2022-07-26T23:23:23.252Z,4.70
2022-07-26T23:25:54.549Z,4.53
2022-07-26T23:28:35.898Z,4.32
2022-07-26T23:31:05.593Z,4.30
2022-07-26T23:33:53.534Z,3.70
2022-07-26T23:36:18.782Z,4.05
2022-07-26T23:38:45.395Z,4.15
2022-07-26T23:41:12.004Z,4.15
2022-07-26T23:43:38.621Z,4.15
2022-07-26T23:46:05.217Z,4.38
2022-07-26T23:48:31.983Z,4.03
2022-07-26T23:50:58.634Z,3.63
2022-07-26T23:53:26.783Z,3.60
2022-07-26T23:55:53.924Z,3.45
2022-07-26T23:58:20.642Z,4.18
